sensor_id;sensor_type;location;lat;lon;timestamp;pressure;altitude;pressure_sealevel;temperature;humidity
59487;BME280;45298;54.918;73.504;2023-06-14T00:01:54;100845.41;;;15.09;47.77
59487;BME280;45298;54.918;73.504;2023-06-14T00:04:23;100813.56;;;15.19;46.67
59487;BME280;45298;54.918;73.504;2023-06-14T00:06:54;100848.41;;;15.69;45.75
59487;BME280;45298;54.918;73.504;2023-06-14T00:09:25;100842.16;;;16.08;45.10
59487;BME280;45298;54.918;73.504;2023-06-14T00:11:54;100849.44;;;15.80;45.29
59487;BME280;45298;54.918;73.504;2023-06-14T00:14:22;100855.41;;;14.80;47.12
59487;BME280;45298;54.918;73.504;2023-06-14T00:16:51;100861.72;;;14.10;49.08
59487;BME280;45298;54.918;73.504;2023-06-14T00:19:27;100858.50;;;13.47;50.83
59487;BME280;45298;54.918;73.504;2023-06-14T00:21:55;100862.59;;;13.07;51.41
59487;BME280;45298;54.918;73.504;2023-06-14T00:24:25;100869.63;;;12.78;52.34
59487;BME280;45298;54.918;73.504;2023-06-14T00:26:54;100869.31;;;12.52;53.16
59487;BME280;45298;54.918;73.504;2023-06-14T00:29:27;100855.69;;;12.26;53.82
59487;BME280;45298;54.918;73.504;2023-06-14T00:31:56;100868.75;;;12.31;54.29
59487;BME280;45298;54.918;73.504;2023-06-14T00:34:26;100874.66;;;12.98;53.17
59487;BME280;45298;54.918;73.504;2023-06-14T00:36:55;100873.28;;;13.81;52.05
59487;BME280;45298;54.918;73.504;2023-06-14T00:39:24;100885.66;;;13.82;51.66
59487;BME280;45298;54.918;73.504;2023-06-14T00:41:53;100871.94;;;14.72;50.55
59487;BME280;45298;54.918;73.504;2023-06-14T00:44:21;100870.56;;;15.46;49.09
59487;BME280;45298;54.918;73.504;2023-06-14T00:46:50;100863.78;;;16.05;47.35
59487;BME280;45298;54.918;73.504;2023-06-14T00:49:23;100837.22;;;16.39;45.52
59487;BME280;45298;54.918;73.504;2023-06-14T00:51:52;100876.31;;;17.14;45.36
59487;BME280;45298;54.918;73.504;2023-06-14T00:54:21;100886.63;;;17.66;43.73
59487;BME280;45298;54.918;73.504;2023-06-14T00:56:52;100873.47;;;18.08;42.91
59487;BME280;45298;54.918;73.504;2023-06-14T00:59:21;100861.91;;;18.52;42.01
59487;BME280;45298;54.918;73.504;2023-06-14T01:01:50;100873.97;;;18.90;40.54
59487;BME280;45298;54.918;73.504;2023-06-14T01:04:19;100876.19;;;19.17;40.05
59487;BME280;45298;54.918;73.504;2023-06-14T01:12:02;100888.50;;;19.93;38.01
59487;BME280;45298;54.918;73.504;2023-06-14T01:14:34;100894.13;;;20.21;36.51
59487;BME280;45298;54.918;73.504;2023-06-14T01:17:05;100894.72;;;20.35;36.30
59487;BME280;45298;54.918;73.504;2023-06-14T01:19:36;100874.75;;;20.47;36.12
59487;BME280;45298;54.918;73.504;2023-06-14T01:22:05;100895.94;;;20.81;35.41
59487;BME280;45298;54.918;73.504;2023-06-14T01:24:35;100885.59;;;20.87;35.00
59487;BME280;45298;54.918;73.504;2023-06-14T01:27:04;100897.22;;;20.87;35.09
59487;BME280;45298;54.918;73.504;2023-06-14T01:29:33;100908.00;;;20.77;35.27
59487;BME280;45298;54.918;73.504;2023-06-14T01:32:05;100898.66;;;20.91;35.23
59487;BME280;45298;54.918;73.504;2023-06-14T01:34:34;100893.09;;;21.03;34.24
59487;BME280;45298;54.918;73.504;2023-06-14T01:37:04;100899.47;;;20.92;34.34
59487;BME280;45298;54.918;73.504;2023-06-14T01:39:33;100893.69;;;20.87;34.32
59487;BME280;45298;54.918;73.504;2023-06-14T01:42:03;100897.50;;;20.94;34.01
59487;BME280;45298;54.918;73.504;2023-06-14T01:44:35;100901.63;;;20.78;33.77
59487;BME280;45298;54.918;73.504;2023-06-14T01:47:04;100900.16;;;20.74;33.67
59487;BME280;45298;54.918;73.504;2023-06-14T01:49:34;100909.00;;;20.76;34.05
59487;BME280;45298;54.918;73.504;2023-06-14T01:52:03;100906.47;;;20.85;33.84
59487;BME280;45298;54.918;73.504;2023-06-14T01:54:33;100892.38;;;20.91;34.02
59487;BME280;45298;54.918;73.504;2023-06-14T01:57:02;100912.84;;;21.03;33.36
59487;BME280;45298;54.918;73.504;2023-06-14T01:59:31;100896.22;;;20.88;32.23
59487;BME280;45298;54.918;73.504;2023-06-14T02:02:03;100902.75;;;20.76;32.89
59487;BME280;45298;54.918;73.504;2023-06-14T02:04:33;100902.00;;;20.64;32.70
59487;BME280;45298;54.918;73.504;2023-06-14T02:07:03;100902.13;;;20.52;32.76
59487;BME280;45298;54.918;73.504;2023-06-14T02:09:34;100901.03;;;20.14;32.35
59487;BME280;45298;54.918;73.504;2023-06-14T02:12:03;100898.19;;;20.06;33.24
59487;BME280;45298;54.918;73.504;2023-06-14T02:14:33;100894.66;;;20.15;33.50
59487;BME280;45298;54.918;73.504;2023-06-14T02:17:02;100894.16;;;20.41;33.73
59487;BME280;45298;54.918;73.504;2023-06-14T02:19:32;100881.00;;;20.67;33.62
59487;BME280;45298;54.918;73.504;2023-06-14T02:22:03;100885.13;;;20.72;32.87
59487;BME280;45298;54.918;73.504;2023-06-14T02:24:34;100877.75;;;20.64;33.05
59487;BME280;45298;54.918;73.504;2023-06-14T02:27:08;100879.72;;;20.42;32.43
59487;BME280;45298;54.918;73.504;2023-06-14T02:29:43;100878.28;;;20.38;32.95
59487;BME280;45298;54.918;73.504;2023-06-14T02:32:13;100903.56;;;20.66;33.60
59487;BME280;45298;54.918;73.504;2023-06-14T02:34:42;100884.41;;;20.69;32.92
59487;BME280;45298;54.918;73.504;2023-06-14T02:37:11;100842.69;;;20.44;32.94
59487;BME280;45298;54.918;73.504;2023-06-14T02:39:41;100892.06;;;20.74;32.72
59487;BME280;45298;54.918;73.504;2023-06-14T02:42:10;100883.00;;;20.65;32.63
59487;BME280;45298;54.918;73.504;2023-06-14T02:44:39;100879.28;;;20.57;32.76
59487;BME280;45298;54.918;73.504;2023-06-14T02:47:08;100877.00;;;20.42;32.57
59487;BME280;45298;54.918;73.504;2023-06-14T02:49:38;100884.25;;;20.51;33.16
59487;BME280;45298;54.918;73.504;2023-06-14T02:52:08;100892.66;;;20.68;32.66
59487;BME280;45298;54.918;73.504;2023-06-14T02:54:37;100880.22;;;20.77;32.83
59487;BME280;45298;54.918;73.504;2023-06-14T02:57:07;100867.81;;;20.74;32.36
59487;BME280;45298;54.918;73.504;2023-06-14T02:59:40;100879.06;;;20.79;33.60
59487;BME280;45298;54.918;73.504;2023-06-14T03:02:09;100878.03;;;20.61;31.98
59487;BME280;45298;54.918;73.504;2023-06-14T03:04:39;100880.72;;;20.51;32.69
59487;BME280;45298;54.918;73.504;2023-06-14T03:07:12;100873.34;;;20.63;32.13
59487;BME280;45298;54.918;73.504;2023-06-14T03:09:43;100873.34;;;20.73;31.96
59487;BME280;45298;54.918;73.504;2023-06-14T03:12:12;100875.81;;;20.76;31.50
59487;BME280;45298;54.918;73.504;2023-06-14T03:14:41;100870.97;;;20.79;31.93
59487;BME280;45298;54.918;73.504;2023-06-14T03:17:11;100862.44;;;20.84;31.36
59487;BME280;45298;54.918;73.504;2023-06-14T03:19:40;100868.72;;;20.94;30.53
59487;BME280;45298;54.918;73.504;2023-06-14T03:22:09;100877.78;;;21.13;30.44
59487;BME280;45298;54.918;73.504;2023-06-14T03:24:40;100867.06;;;21.31;30.25
59487;BME280;45298;54.918;73.504;2023-06-14T03:27:12;100872.06;;;21.36;29.93
59487;BME280;45298;54.918;73.504;2023-06-14T03:29:44;100854.56;;;21.30;29.94
59487;BME280;45298;54.918;73.504;2023-06-14T03:32:12;100848.31;;;21.39;29.76
59487;BME280;45298;54.918;73.504;2023-06-14T03:34:43;100851.94;;;21.58;29.79
59487;BME280;45298;54.918;73.504;2023-06-14T03:37:18;100862.69;;;21.78;28.88
59487;BME280;45298;54.918;73.504;2023-06-14T03:39:48;100859.59;;;21.72;27.78
59487;BME280;45298;54.918;73.504;2023-06-14T03:42:21;100859.06;;;21.59;29.65
59487;BME280;45298;54.918;73.504;2023-06-14T03:44:50;100859.34;;;21.66;28.38
59487;BME280;45298;54.918;73.504;2023-06-14T03:47:23;100853.94;;;21.66;27.64
59487;BME280;45298;54.918;73.504;2023-06-14T03:49:52;100859.06;;;21.59;27.19
59487;BME280;45298;54.918;73.504;2023-06-14T03:52:21;100855.66;;;21.57;27.45
59487;BME280;45298;54.918;73.504;2023-06-14T03:54:53;100823.91;;;21.31;28.29
59487;BME280;45298;54.918;73.504;2023-06-14T03:57:42;100860.50;;;21.63;27.75
59487;BME280;45298;54.918;73.504;2023-06-14T04:00:16;100844.56;;;21.70;27.68
59487;BME280;45298;54.918;73.504;2023-06-14T04:02:45;100859.78;;;21.89;28.07
59487;BME280;45298;54.918;73.504;2023-06-14T04:05:14;100841.84;;;21.98;28.31
59487;BME280;45298;54.918;73.504;2023-06-14T04:07:48;100842.50;;;22.10;27.75
59487;BME280;45298;54.918;73.504;2023-06-14T04:10:19;100844.09;;;22.02;27.15
59487;BME280;45298;54.918;73.504;2023-06-14T04:12:49;100844.41;;;21.99;27.40
59487;BME280;45298;54.918;73.504;2023-06-14T04:15:19;100850.06;;;22.06;27.83
59487;BME280;45298;54.918;73.504;2023-06-14T04:17:52;100848.56;;;21.94;27.32
59487;BME280;45298;54.918;73.504;2023-06-14T04:20:26;100845.41;;;21.98;26.88
59487;BME280;45298;54.918;73.504;2023-06-14T04:22:56;100838.09;;;22.09;27.16
59487;BME280;45298;54.918;73.504;2023-06-14T04:25:26;100744.28;;;21.55;28.03
59487;BME280;45298;54.918;73.504;2023-06-14T04:28:00;100795.31;;;22.04;27.07
59487;BME280;45298;54.918;73.504;2023-06-14T04:30:30;100822.84;;;22.36;26.18
59487;BME280;45298;54.918;73.504;2023-06-14T04:33:00;100823.19;;;22.51;27.54
59487;BME280;45298;54.918;73.504;2023-06-14T04:35:29;100844.19;;;22.75;26.97
59487;BME280;45298;54.918;73.504;2023-06-14T04:38:00;100828.88;;;22.66;26.68
59487;BME280;45298;54.918;73.504;2023-06-14T04:40:32;100833.06;;;22.78;27.86
59487;BME280;45298;54.918;73.504;2023-06-14T04:43:02;100828.88;;;22.84;26.32
59487;BME280;45298;54.918;73.504;2023-06-14T04:45:35;100827.78;;;22.94;26.59
59487;BME280;45298;54.918;73.504;2023-06-14T04:48:06;100837.13;;;23.00;25.33
59487;BME280;45298;54.918;73.504;2023-06-14T04:50:35;100831.13;;;23.15;25.84
59487;BME280;45298;54.918;73.504;2023-06-14T04:53:04;100835.31;;;23.09;25.99
59487;BME280;45298;54.918;73.504;2023-06-14T04:55:34;100818.41;;;23.07;25.38
59487;BME280;45298;54.918;73.504;2023-06-14T04:58:05;100821.16;;;23.15;25.73
59487;BME280;45298;54.918;73.504;2023-06-14T05:00:34;100816.13;;;23.20;25.57
59487;BME280;45298;54.918;73.504;2023-06-14T05:03:05;100769.06;;;23.13;25.64
59487;BME280;45298;54.918;73.504;2023-06-14T05:05:35;100814.28;;;23.47;25.41
59487;BME280;45298;54.918;73.504;2023-06-14T05:08:04;100817.22;;;23.28;24.68
59487;BME280;45298;54.918;73.504;2023-06-14T05:10:33;100809.13;;;22.83;25.01
59487;BME280;45298;54.918;73.504;2023-06-14T05:13:03;100799.84;;;22.68;26.43
59487;BME280;45298;54.918;73.504;2023-06-14T05:15:33;100827.47;;;22.98;25.68
59487;BME280;45298;54.918;73.504;2023-06-14T05:18:02;100818.97;;;23.19;25.37
59487;BME280;45298;54.918;73.504;2023-06-14T05:20:31;100809.34;;;23.16;27.19
59487;BME280;45298;54.918;73.504;2023-06-14T05:23:00;100818.78;;;23.38;25.63
59487;BME280;45298;54.918;73.504;2023-06-14T05:25:29;100790.97;;;23.54;26.05
59487;BME280;45298;54.918;73.504;2023-06-14T05:27:59;100787.63;;;23.69;24.80
59487;BME280;45298;54.918;73.504;2023-06-14T05:30:31;100809.78;;;23.99;25.65
59487;BME280;45298;54.918;73.504;2023-06-14T05:33:09;100778.34;;;23.72;24.76
59487;BME280;45298;54.918;73.504;2023-06-14T05:35:39;100800.34;;;23.77;25.43
59487;BME280;45298;54.918;73.504;2023-06-14T05:38:08;100793.78;;;23.79;25.02
59487;BME280;45298;54.918;73.504;2023-06-14T05:40:37;100793.81;;;23.96;23.69
59487;BME280;45298;54.918;73.504;2023-06-14T05:43:06;100794.84;;;23.95;25.43
59487;BME280;45298;54.918;73.504;2023-06-14T05:45:34;100789.13;;;23.98;25.33
59487;BME280;45298;54.918;73.504;2023-06-14T05:48:04;100795.59;;;24.13;24.61
59487;BME280;45298;54.918;73.504;2023-06-14T05:50:33;100738.28;;;23.92;24.43
59487;BME280;45298;54.918;73.504;2023-06-14T05:53:02;100755.63;;;24.16;24.62
59487;BME280;45298;54.918;73.504;2023-06-14T05:55:31;100780.03;;;24.16;24.16
59487;BME280;45298;54.918;73.504;2023-06-14T05:58:00;100775.13;;;24.27;24.57
59487;BME280;45298;54.918;73.504;2023-06-14T06:00:28;100762.44;;;24.36;24.70
59487;BME280;45298;54.918;73.504;2023-06-14T06:02:57;100764.13;;;24.37;25.53
59487;BME280;45298;54.918;73.504;2023-06-14T06:05:27;100769.22;;;24.40;25.71
59487;BME280;45298;54.918;73.504;2023-06-14T06:07:56;100765.47;;;24.58;25.09
59487;BME280;45298;54.918;73.504;2023-06-14T06:10:28;100757.19;;;24.51;24.05
59487;BME280;45298;54.918;73.504;2023-06-14T06:12:58;100756.50;;;24.41;23.61
59487;BME280;45298;54.918;73.504;2023-06-14T06:15:27;100695.69;;;24.19;24.49
59487;BME280;45298;54.918;73.504;2023-06-14T06:17:55;100740.22;;;24.66;26.10
59487;BME280;45298;54.918;73.504;2023-06-14T06:20:29;100738.72;;;24.71;24.23
59487;BME280;45298;54.918;73.504;2023-06-14T06:23:00;100751.56;;;24.86;23.47
59487;BME280;45298;54.918;73.504;2023-06-14T06:25:30;100742.22;;;24.97;24.38
59487;BME280;45298;54.918;73.504;2023-06-14T06:28:01;100754.53;;;25.24;23.10
59487;BME280;45298;54.918;73.504;2023-06-14T06:30:33;100750.44;;;25.28;23.35
59487;BME280;45298;54.918;73.504;2023-06-14T06:33:08;100737.63;;;25.14;23.01
59487;BME280;45298;54.918;73.504;2023-06-14T06:35:37;100732.03;;;25.07;22.63
59487;BME280;45298;54.918;73.504;2023-06-14T06:38:06;100745.56;;;25.15;23.46
59487;BME280;45298;54.918;73.504;2023-06-14T06:40:35;100722.50;;;25.19;22.25
59487;BME280;45298;54.918;73.504;2023-06-14T06:43:04;100726.34;;;25.33;21.67
59487;BME280;45298;54.918;73.504;2023-06-14T06:45:41;100714.34;;;25.19;22.76
59487;BME280;45298;54.918;73.504;2023-06-14T06:48:10;100717.19;;;25.34;23.08
59487;BME280;45298;54.918;73.504;2023-06-14T06:50:40;100671.41;;;25.23;23.62
59487;BME280;45298;54.918;73.504;2023-06-14T06:53:09;100715.13;;;25.45;22.69
59487;BME280;45298;54.918;73.504;2023-06-14T06:55:38;100705.91;;;25.54;23.64
59487;BME280;45298;54.918;73.504;2023-06-14T06:58:07;100703.66;;;25.66;22.71
59487;BME280;45298;54.918;73.504;2023-06-14T07:00:36;100682.50;;;25.53;23.16
59487;BME280;45298;54.918;73.504;2023-06-14T07:03:07;100688.25;;;25.58;22.61
59487;BME280;45298;54.918;73.504;2023-06-14T07:05:37;100691.59;;;25.60;22.21
59487;BME280;45298;54.918;73.504;2023-06-14T07:08:06;100681.16;;;25.49;23.81
59487;BME280;45298;54.918;73.504;2023-06-14T07:10:36;100695.53;;;25.58;23.64
59487;BME280;45298;54.918;73.504;2023-06-14T07:13:05;100691.59;;;25.60;23.44
59487;BME280;45298;54.918;73.504;2023-06-14T07:15:36;100686.44;;;25.74;22.62
59487;BME280;45298;54.918;73.504;2023-06-14T07:18:06;100648.28;;;25.67;21.52
59487;BME280;45298;54.918;73.504;2023-06-14T07:20:35;100689.53;;;25.94;23.61
59487;BME280;45298;54.918;73.504;2023-06-14T07:23:06;100684.59;;;25.98;21.60
59487;BME280;45298;54.918;73.504;2023-06-14T07:25:35;100663.81;;;25.82;22.26
59487;BME280;45298;54.918;73.504;2023-06-14T07:28:07;100686.66;;;25.95;21.79
59487;BME280;45298;54.918;73.504;2023-06-14T07:30:36;100686.28;;;25.99;21.08
59487;BME280;45298;54.918;73.504;2023-06-14T07:33:06;100671.28;;;26.03;21.11
59487;BME280;45298;54.918;73.504;2023-06-14T07:35:36;100661.63;;;26.23;23.17
59487;BME280;45298;54.918;73.504;2023-06-14T07:38:09;100657.25;;;26.37;22.43
59487;BME280;45298;54.918;73.504;2023-06-14T07:40:38;100643.09;;;26.42;22.19
59487;BME280;45298;54.918;73.504;2023-06-14T07:43:07;100641.63;;;26.54;22.16
59487;BME280;45298;54.918;73.504;2023-06-14T07:45:37;100637.66;;;26.42;22.06
59487;BME280;45298;54.918;73.504;2023-06-14T07:48:12;100652.38;;;26.33;21.27
59487;BME280;45298;54.918;73.504;2023-06-14T07:50:41;100654.66;;;26.44;22.11
59487;BME280;45298;54.918;73.504;2023-06-14T07:53:10;100602.94;;;26.14;20.87
59487;BME280;45298;54.918;73.504;2023-06-14T07:55:39;100625.19;;;26.33;21.53
59487;BME280;45298;54.918;73.504;2023-06-14T07:58:20;100626.59;;;26.59;22.57
59487;BME280;45298;54.918;73.504;2023-06-14T08:00:49;100637.22;;;26.68;21.24
59487;BME280;45298;54.918;73.504;2023-06-14T08:03:18;100642.56;;;26.47;21.47
59487;BME280;45298;54.918;73.504;2023-06-14T08:05:48;100612.53;;;26.40;22.39
59487;BME280;45298;54.918;73.504;2023-06-14T08:08:17;100629.44;;;26.50;21.64
59487;BME280;45298;54.918;73.504;2023-06-14T08:10:46;100621.84;;;26.46;21.92
59487;BME280;45298;54.918;73.504;2023-06-14T08:13:15;100624.25;;;26.40;20.32
59487;BME280;45298;54.918;73.504;2023-06-14T08:15:44;100639.00;;;26.46;22.12
59487;BME280;45298;54.918;73.504;2023-06-14T08:18:13;100629.72;;;26.40;21.65
59487;BME280;45298;54.918;73.504;2023-06-14T08:20:43;100608.41;;;26.44;20.86
59487;BME280;45298;54.918;73.504;2023-06-14T08:23:12;100614.34;;;26.48;21.53
59487;BME280;45298;54.918;73.504;2023-06-14T08:25:41;100585.25;;;26.63;21.49
59487;BME280;45298;54.918;73.504;2023-06-14T08:28:10;100624.00;;;27.10;22.79
59487;BME280;45298;54.918;73.504;2023-06-14T08:30:39;100616.72;;;26.81;21.56
59487;BME280;45298;54.918;73.504;2023-06-14T08:33:08;100613.47;;;26.32;21.55
59487;BME280;45298;54.918;73.504;2023-06-14T08:35:46;100613.53;;;26.01;21.78
59487;BME280;45298;54.918;73.504;2023-06-14T08:38:16;100572.06;;;25.45;22.02
59487;BME280;45298;54.918;73.504;2023-06-14T08:40:48;100606.34;;;25.46;22.13
59487;BME280;45298;54.918;73.504;2023-06-14T08:43:19;100611.25;;;25.43;22.06
59487;BME280;45298;54.918;73.504;2023-06-14T08:45:48;100603.09;;;25.43;22.17
59487;BME280;45298;54.918;73.504;2023-06-14T08:48:23;100599.06;;;25.39;22.76
59487;BME280;45298;54.918;73.504;2023-06-14T08:51:00;100598.38;;;25.37;23.99
59487;BME280;45298;54.918;73.504;2023-06-14T08:53:33;100606.19;;;25.40;24.47
59487;BME280;45298;54.918;73.504;2023-06-14T08:56:08;100582.91;;;25.14;23.53
59487;BME280;45298;54.918;73.504;2023-06-14T08:58:44;100598.94;;;24.92;24.02
59487;BME280;45298;54.918;73.504;2023-06-14T09:01:16;100594.94;;;24.80;24.13
59487;BME280;45298;54.918;73.504;2023-06-14T09:03:45;100595.78;;;24.80;25.28
59487;BME280;45298;54.918;73.504;2023-06-14T09:06:17;100584.97;;;25.03;24.34
59487;BME280;45298;54.918;73.504;2023-06-14T09:08:47;100559.63;;;25.19;25.07
59487;BME280;45298;54.918;73.504;2023-06-14T09:11:18;100563.34;;;25.50;23.17
59487;BME280;45298;54.918;73.504;2023-06-14T09:13:49;100547.41;;;25.47;23.63
59487;BME280;45298;54.918;73.504;2023-06-14T09:16:18;100572.00;;;25.77;23.42
59487;BME280;45298;54.918;73.504;2023-06-14T09:18:48;100551.09;;;25.77;23.78
59487;BME280;45298;54.918;73.504;2023-06-14T09:21:17;100581.13;;;25.99;23.05
59487;BME280;45298;54.918;73.504;2023-06-14T09:23:47;100559.84;;;26.03;23.57
59487;BME280;45298;54.918;73.504;2023-06-14T09:26:19;100552.72;;;26.02;22.83
59487;BME280;45298;54.918;73.504;2023-06-14T09:28:50;100536.28;;;25.80;21.83
59487;BME280;45298;54.918;73.504;2023-06-14T09:31:20;100549.13;;;25.48;23.37
59487;BME280;45298;54.918;73.504;2023-06-14T09:33:50;100542.84;;;25.16;23.43
59487;BME280;45298;54.918;73.504;2023-06-14T09:36:23;100535.06;;;24.81;25.05
59487;BME280;45298;54.918;73.504;2023-06-14T09:38:53;100551.56;;;25.03;25.13
59487;BME280;45298;54.918;73.504;2023-06-14T09:44:08;100546.16;;;25.58;23.90
59487;BME280;45298;54.918;73.504;2023-06-14T09:46:45;100535.66;;;25.78;24.65
59487;BME280;45298;54.918;73.504;2023-06-14T09:49:16;100521.03;;;25.94;23.55
59487;BME280;45298;54.918;73.504;2023-06-14T09:51:45;100534.09;;;25.99;23.72
59487;BME280;45298;54.918;73.504;2023-06-14T09:54:22;100525.16;;;25.90;22.95
59487;BME280;45298;54.918;73.504;2023-06-14T09:56:52;100515.31;;;25.74;24.37
59487;BME280;45298;54.918;73.504;2023-06-14T09:59:24;100522.78;;;25.72;23.85
59487;BME280;45298;54.918;73.504;2023-06-14T10:01:58;100513.50;;;25.66;23.56
59487;BME280;45298;54.918;73.504;2023-06-14T10:04:30;100516.94;;;25.60;23.11
59487;BME280;45298;54.918;73.504;2023-06-14T10:07:00;100507.97;;;25.59;23.77
59487;BME280;45298;54.918;73.504;2023-06-14T10:09:30;100470.06;;;25.43;23.69
59487;BME280;45298;54.918;73.504;2023-06-14T10:12:01;100503.00;;;25.63;24.34
59487;BME280;45298;54.918;73.504;2023-06-14T10:14:30;100496.19;;;25.67;24.13
59487;BME280;45298;54.918;73.504;2023-06-14T10:17:06;100500.69;;;25.75;24.43
59487;BME280;45298;54.918;73.504;2023-06-14T10:19:50;100508.75;;;25.83;23.51
59487;BME280;45298;54.918;73.504;2023-06-14T10:22:51;100497.50;;;25.86;23.17
59487;BME280;45298;54.918;73.504;2023-06-14T10:25:28;100480.53;;;25.84;23.13
59487;BME280;45298;54.918;73.504;2023-06-14T10:31:06;100487.59;;;25.93;23.60
59487;BME280;45298;54.918;73.504;2023-06-14T10:36:25;100473.03;;;25.71;24.28
59487;BME280;45298;54.918;73.504;2023-06-14T10:38:59;100477.41;;;25.57;24.91
59487;BME280;45298;54.918;73.504;2023-06-14T10:41:28;100461.75;;;25.44;23.48
59487;BME280;45298;54.918;73.504;2023-06-14T10:46:52;100467.59;;;25.56;25.12
59487;BME280;45298;54.918;73.504;2023-06-14T10:49:44;100442.19;;;25.49;25.61
59487;BME280;45298;54.918;73.504;2023-06-14T10:52:15;100446.03;;;25.55;24.19
59487;BME280;45298;54.918;73.504;2023-06-14T10:57:44;100441.19;;;25.42;24.71
59487;BME280;45298;54.918;73.504;2023-06-14T11:00:20;100428.06;;;25.30;24.33
59487;BME280;45298;54.918;73.504;2023-06-14T11:05:49;100420.94;;;25.29;25.31
59487;BME280;45298;54.918;73.504;2023-06-14T11:11:22;100411.19;;;25.20;25.76
59487;BME280;45298;54.918;73.504;2023-06-14T11:13:54;100418.13;;;25.23;25.72
59487;BME280;45298;54.918;73.504;2023-06-14T11:16:26;100418.66;;;25.18;25.53
59487;BME280;45298;54.918;73.504;2023-06-14T11:18:56;100412.22;;;25.19;26.15
59487;BME280;45298;54.918;73.504;2023-06-14T11:21:25;100404.25;;;25.17;25.31
59487;BME280;45298;54.918;73.504;2023-06-14T11:23:59;100397.31;;;25.15;25.95
59487;BME280;45298;54.918;73.504;2023-06-14T11:26:29;100400.19;;;25.13;24.69
59487;BME280;45298;54.918;73.504;2023-06-14T11:29:00;100393.22;;;25.19;25.38
59487;BME280;45298;54.918;73.504;2023-06-14T11:31:30;100383.56;;;25.16;26.04
59487;BME280;45298;54.918;73.504;2023-06-14T11:34:00;100395.75;;;25.20;25.53
59487;BME280;45298;54.918;73.504;2023-06-14T11:36:30;100379.13;;;25.00;25.02
59487;BME280;45298;54.918;73.504;2023-06-14T11:39:03;100385.94;;;24.96;25.66
59487;BME280;45298;54.918;73.504;2023-06-14T11:41:42;100376.00;;;24.88;25.89
59487;BME280;45298;54.918;73.504;2023-06-14T11:44:12;100393.81;;;24.83;26.08
59487;BME280;45298;54.918;73.504;2023-06-14T11:46:41;100370.50;;;24.65;24.93
59487;BME280;45298;54.918;73.504;2023-06-14T11:49:10;100339.84;;;24.41;24.66
59487;BME280;45298;54.918;73.504;2023-06-14T11:51:42;100373.22;;;24.65;26.31
59487;BME280;45298;54.918;73.504;2023-06-14T11:54:11;100357.06;;;24.49;25.44
59487;BME280;45298;54.918;73.504;2023-06-14T11:56:41;100363.50;;;24.48;26.18
59487;BME280;45298;54.918;73.504;2023-06-14T11:59:13;100358.09;;;24.48;26.91
59487;BME280;45298;54.918;73.504;2023-06-14T12:01:43;100357.63;;;24.44;26.57
59487;BME280;45298;54.918;73.504;2023-06-14T12:04:12;100343.94;;;24.37;26.41
59487;BME280;45298;54.918;73.504;2023-06-14T12:06:41;100305.06;;;24.22;26.36
59487;BME280;45298;54.918;73.504;2023-06-14T12:09:11;100349.28;;;24.45;26.34
59487;BME280;45298;54.918;73.504;2023-06-14T12:11:45;100346.81;;;24.36;26.61
59487;BME280;45298;54.918;73.504;2023-06-14T12:14:14;100355.81;;;24.36;26.47
59487;BME280;45298;54.918;73.504;2023-06-14T12:16:44;100350.47;;;24.20;26.28
59487;BME280;45298;54.918;73.504;2023-06-14T12:19:14;100342.38;;;24.11;26.54
59487;BME280;45298;54.918;73.504;2023-06-14T12:21:46;100346.97;;;24.11;27.34
59487;BME280;45298;54.918;73.504;2023-06-14T12:24:17;100336.59;;;24.14;26.83
59487;BME280;45298;54.918;73.504;2023-06-14T12:26:46;100335.91;;;24.21;28.43
59487;BME280;45298;54.918;73.504;2023-06-14T12:29:15;100330.97;;;24.24;26.87
59487;BME280;45298;54.918;73.504;2023-06-14T12:31:44;100336.97;;;24.35;27.71
59487;BME280;45298;54.918;73.504;2023-06-14T12:34:13;100331.75;;;24.33;27.56
59487;BME280;45298;54.918;73.504;2023-06-14T12:36:42;100318.09;;;24.26;28.06
59487;BME280;45298;54.918;73.504;2023-06-14T12:39:13;100314.50;;;24.26;27.64
59487;BME280;45298;54.918;73.504;2023-06-14T12:41:42;100307.41;;;24.25;27.07
59487;BME280;45298;54.918;73.504;2023-06-14T12:44:12;100321.97;;;24.24;27.61
59487;BME280;45298;54.918;73.504;2023-06-14T12:46:42;100322.16;;;24.22;27.96
59487;BME280;45298;54.918;73.504;2023-06-14T12:49:14;100310.88;;;24.10;27.94
59487;BME280;45298;54.918;73.504;2023-06-14T12:51:43;100311.22;;;24.07;27.76
59487;BME280;45298;54.918;73.504;2023-06-14T12:54:12;100293.63;;;24.03;27.30
59487;BME280;45298;54.918;73.504;2023-06-14T12:56:55;100312.63;;;23.95;27.72
59487;BME280;45298;54.918;73.504;2023-06-14T12:59:24;100301.47;;;23.90;27.43
59487;BME280;45298;54.918;73.504;2023-06-14T13:01:53;100312.31;;;23.90;27.39
59487;BME280;45298;54.918;73.504;2023-06-14T13:04:22;100302.53;;;23.80;27.91
59487;BME280;45298;54.918;73.504;2023-06-14T13:06:54;100305.59;;;23.69;28.20
59487;BME280;45298;54.918;73.504;2023-06-14T13:09:23;100293.81;;;23.62;28.26
59487;BME280;45298;54.918;73.504;2023-06-14T13:11:52;100299.22;;;23.62;29.10
59487;BME280;45298;54.918;73.504;2023-06-14T13:14:20;100301.75;;;23.63;29.36
59487;BME280;45298;54.918;73.504;2023-06-14T13:16:53;100303.25;;;23.66;29.82
59487;BME280;45298;54.918;73.504;2023-06-14T13:19:22;100286.25;;;23.49;29.72
59487;BME280;45298;54.918;73.504;2023-06-14T13:21:51;100284.34;;;23.49;29.05
59487;BME280;45298;54.918;73.504;2023-06-14T13:24:20;100285.91;;;23.52;28.79